createdAt,value
2022-10-03T00:02:28.782Z,7.10
2022-10-03T00:05:06.162Z,7.78
2022-10-03T00:07:58.036Z,7.75
2022-10-03T00:10:47.698Z,7.50
2022-10-03T00:13:24.917Z,7.28
2022-10-03T00:15:55.753Z,7.65
2022-10-03T00:18:29.569Z,8.18
2022-10-03T00:21:22.802Z,7.18
2022-10-03T00:24:28.803Z,8.95
2022-10-03T00:27:11.653Z,8.40
2022-10-03T00:30:05.997Z,9.07
2022-10-03T00:32:54.788Z,9.82
2022-10-03T00:35:49.935Z,10.65
2022-10-03T00:38:31.685Z,11.55
2022-10-03T00:41:18.237Z,11.50
2022-10-03T00:44:01.997Z,11.77
2022-10-03T00:46:43.671Z,10.40
2022-10-03T00:49:34.549Z,10.70
2022-10-03T00:52:14.431Z,9.30
2022-10-03T00:54:54.687Z,9.68
2022-10-03T00:58:11.727Z,9.88
2022-10-03T01:00:43.422Z,9.35
2022-10-03T01:03:22.545Z,9.13
2022-10-03T01:06:15.644Z,9.02
2022-10-03T01:09:11.892Z,9.13
2022-10-03T01:12:24.171Z,8.95
2022-10-03T01:15:07.754Z,8.95
2022-10-03T01:17:50.053Z,9.50
2022-10-03T01:20:40.403Z,10.35
2022-10-03T01:23:14.089Z,12.00
2022-10-03T01:26:10.477Z,12.13
2022-10-03T01:29:06.526Z,10.60
2022-10-03T01:32:01.845Z,9.10
2022-10-03T01:35:01.693Z,10.63
2022-10-03T01:37:41.202Z,8.88
2022-10-03T01:40:31.331Z,12.13
2022-10-03T01:43:10.383Z,19.15
2022-10-03T01:46:05.677Z,30.75
2022-10-03T01:48:50.609Z,29.95
2022-10-03T01:51:35.724Z,15.32
2022-10-03T01:54:19.612Z,10.05
2022-10-03T01:57:14.000Z,9.13
2022-10-03T02:00:12.574Z,8.60
2022-10-03T02:02:50.935Z,8.10
2022-10-03T02:05:29.164Z,7.22
2022-10-03T02:08:06.542Z,7.20
2022-10-03T02:10:53.628Z,8.07
2022-10-03T02:13:37.670Z,11.20
2022-10-03T02:16:31.858Z,10.13
2022-10-03T02:19:24.555Z,8.30
2022-10-03T02:21:57.989Z,8.98
2022-10-03T02:24:38.197Z,8.43
2022-10-03T02:27:37.651Z,8.00
2022-10-03T02:30:19.006Z,7.22
2022-10-03T02:33:18.648Z,7.35
2022-10-03T02:36:01.354Z,8.40
2022-10-03T02:38:42.393Z,7.20
2022-10-03T02:41:52.642Z,7.40
2022-10-03T02:44:58.680Z,8.00
2022-10-03T02:47:40.609Z,8.95
2022-10-03T02:50:27.133Z,10.65
2022-10-03T02:53:16.148Z,10.50
2022-10-03T02:56:12.345Z,8.45
2022-10-03T02:59:07.578Z,8.82
2022-10-03T03:01:49.179Z,9.02
2022-10-03T03:04:38.171Z,10.75
2022-10-03T03:07:47.288Z,10.60
2022-10-03T03:10:27.239Z,12.18
2022-10-03T03:13:28.585Z,12.25
2022-10-03T03:16:20.849Z,18.35
2022-10-03T03:19:17.987Z,19.98
2022-10-03T03:22:10.670Z,13.02
2022-10-03T03:25:07.580Z,12.35
2022-10-03T03:28:04.625Z,11.32
2022-10-03T03:30:54.744Z,10.40
2022-10-03T03:33:34.627Z,11.10
2022-10-03T03:36:22.517Z,11.60
2022-10-03T03:39:08.661Z,9.57
2022-10-03T03:42:02.308Z,10.80
2022-10-03T03:45:01.388Z,10.35
2022-10-03T03:47:51.517Z,11.27
2022-10-03T03:50:28.166Z,10.77
2022-10-03T03:53:32.416Z,11.50
2022-10-03T03:56:31.190Z,10.23
2022-10-03T03:59:12.082Z,10.10
2022-10-03T04:02:07.125Z,10.18
2022-10-03T04:04:50.893Z,10.32
2022-10-03T04:07:27.603Z,9.40
2022-10-03T04:10:23.231Z,9.93
2022-10-03T04:13:19.749Z,9.07
2022-10-03T04:16:46.927Z,9.27
2022-10-03T04:19:29.664Z,8.55
2022-10-03T04:22:01.696Z,8.80
2022-10-03T04:24:35.354Z,9.95
2022-10-03T04:27:21.275Z,9.48
2022-10-03T04:30:16.616Z,7.90
2022-10-03T04:33:04.098Z,7.82
2022-10-03T04:35:52.182Z,6.85
2022-10-03T04:38:48.743Z,6.32
2022-10-03T04:42:08.758Z,6.10
2022-10-03T04:47:49.374Z,3.92
2022-10-03T04:50:27.758Z,3.40
2022-10-03T04:53:32.634Z,4.43
2022-10-03T04:56:38.528Z,4.70
2022-10-03T04:59:32.396Z,4.38
2022-10-03T05:02:33.698Z,4.50
2022-10-03T05:05:24.717Z,4.43
2022-10-03T05:08:14.096Z,4.45
2022-10-03T05:11:26.991Z,4.63
2022-10-03T05:14:21.085Z,4.38
2022-10-03T05:16:56.398Z,4.15
2022-10-03T05:20:05.543Z,4.07
2022-10-03T05:22:51.069Z,3.67
2022-10-03T05:25:42.593Z,3.63
2022-10-03T05:28:23.123Z,3.30
2022-10-03T05:30:57.715Z,4.03
2022-10-03T05:33:57.557Z,9.68
2022-10-03T05:39:20.102Z,2.20
2022-10-03T05:42:29.737Z,2.42
2022-10-03T05:45:03.523Z,2.38
2022-10-03T05:47:56.367Z,3.55
2022-10-03T05:50:33.137Z,3.60
2022-10-03T05:53:21.575Z,3.92
2022-10-03T05:56:14.111Z,3.75
2022-10-03T05:58:58.088Z,3.92
2022-10-03T06:01:53.276Z,3.90
2022-10-03T06:04:54.185Z,4.43
2022-10-03T06:07:50.468Z,5.72
2022-10-03T06:10:40.679Z,4.10
2022-10-03T06:13:20.128Z,3.90
2022-10-03T06:16:14.443Z,3.97
2022-10-03T06:19:07.357Z,5.28
2022-10-03T06:21:57.830Z,5.72
2022-10-03T06:24:58.978Z,5.32
2022-10-03T06:27:39.845Z,5.13
2022-10-03T06:30:22.814Z,5.15
2022-10-03T06:33:13.856Z,4.88
2022-10-03T06:36:15.963Z,5.07
2022-10-03T06:39:09.972Z,4.90
2022-10-03T06:41:56.528Z,4.82
2022-10-03T06:44:34.635Z,3.80
2022-10-03T06:47:27.754Z,3.63
2022-10-03T06:50:32.699Z,3.97
2022-10-03T06:53:32.228Z,3.17
2022-10-03T06:56:21.184Z,3.38
2022-10-03T06:59:20.728Z,3.20
2022-10-03T07:02:16.972Z,3.78
2022-10-03T07:05:38.557Z,3.40
2022-10-03T07:08:14.521Z,2.80
2022-10-03T07:11:03.344Z,3.00
2022-10-03T07:14:18.514Z,3.33
2022-10-03T07:17:05.183Z,3.65
2022-10-03T07:19:48.100Z,3.00
2022-10-03T07:22:46.863Z,3.83
2022-10-03T07:25:46.773Z,4.65
2022-10-03T07:31:37.765Z,3.22
2022-10-03T07:34:27.191Z,3.47
2022-10-03T07:37:17.179Z,3.40
2022-10-03T07:42:44.716Z,4.45
2022-10-03T07:45:35.749Z,4.65
2022-10-03T07:48:21.781Z,5.10
2022-10-03T07:51:12.665Z,5.22
2022-10-03T07:54:04.122Z,4.75
2022-10-03T07:57:10.651Z,4.70
2022-10-03T08:00:01.180Z,5.03
2022-10-03T08:02:51.208Z,5.30
2022-10-03T08:05:36.375Z,5.47
2022-10-03T08:08:10.083Z,5.43
2022-10-03T08:11:15.650Z,5.57
2022-10-03T08:14:27.922Z,5.20
2022-10-03T08:16:58.623Z,5.50
2022-10-03T08:19:26.495Z,4.95
2022-10-03T08:22:09.291Z,5.80
2022-10-03T08:24:54.132Z,6.32
2022-10-03T08:27:29.968Z,6.35
2022-10-03T08:30:10.297Z,6.15
2022-10-03T08:32:57.905Z,4.93
2022-10-03T08:35:39.559Z,5.03
2022-10-03T08:38:30.508Z,5.43
2022-10-03T08:41:04.546Z,6.05
2022-10-03T08:43:51.243Z,5.85
2022-10-03T08:46:51.653Z,6.57
2022-10-03T08:49:43.546Z,6.10
2022-10-03T08:52:14.484Z,6.57
2022-10-03T08:54:55.896Z,6.68
2022-10-03T08:57:26.545Z,6.93
2022-10-03T09:00:10.776Z,6.25
2022-10-03T09:03:33.415Z,6.13
2022-10-03T09:06:30.423Z,6.82
2022-10-03T09:09:20.179Z,6.35
2022-10-03T09:12:09.681Z,6.07
2022-10-03T09:14:59.904Z,6.00
2022-10-03T09:17:59.654Z,6.97
2022-10-03T09:20:53.851Z,7.15
2022-10-03T09:23:55.303Z,6.90
2022-10-03T09:26:59.941Z,7.72
2022-10-03T09:29:38.750Z,6.50
2022-10-03T09:32:54.318Z,7.53
2022-10-03T09:35:48.584Z,8.32
2022-10-03T09:38:28.748Z,7.93
2022-10-03T09:41:40.766Z,6.40
2022-10-03T09:44:20.536Z,6.32
2022-10-03T09:47:23.354Z,7.43
2022-10-03T09:49:54.163Z,7.07
2022-10-03T09:53:04.083Z,7.75
2022-10-03T09:56:12.204Z,7.07
2022-10-03T09:59:06.420Z,8.27
2022-10-03T10:01:37.654Z,9.23
2022-10-03T10:04:53.117Z,8.88
2022-10-03T10:07:43.622Z,9.60
2022-10-03T10:10:51.129Z,8.43
2022-10-03T10:14:06.157Z,8.98
2022-10-03T10:17:01.389Z,9.00
2022-10-03T10:19:52.399Z,8.70
2022-10-03T10:22:59.570Z,8.43
2022-10-03T10:25:38.697Z,10.63
2022-10-03T10:28:10.029Z,12.45
2022-10-03T10:30:50.033Z,12.73
2022-10-03T10:33:34.444Z,12.75
2022-10-03T10:36:39.540Z,11.25
2022-10-03T10:39:29.370Z,12.23
2022-10-03T10:42:28.780Z,12.93
2022-10-03T10:45:15.697Z,12.85
2022-10-03T10:48:24.624Z,13.45
2022-10-03T10:51:12.515Z,12.83
2022-10-03T10:54:15.900Z,11.98
2022-10-03T10:56:59.116Z,11.95
2022-10-03T10:59:56.845Z,11.60
2022-10-03T11:02:49.872Z,11.30
2022-10-03T11:05:50.349Z,11.85
2022-10-03T11:08:42.520Z,12.43
2022-10-03T11:11:44.654Z,12.68
2022-10-03T11:14:35.168Z,12.10
2022-10-03T11:17:25.856Z,10.43
2022-10-03T11:20:31.016Z,10.90
2022-10-03T11:23:32.901Z,11.10
2022-10-03T11:26:41.308Z,11.02
2022-10-03T11:29:15.425Z,10.87
2022-10-03T11:32:14.621Z,10.55
2022-10-03T11:35:13.207Z,11.65
2022-10-03T11:37:50.162Z,11.50
2022-10-03T11:40:33.813Z,10.93
2022-10-03T11:43:36.764Z,12.20
2022-10-03T11:46:31.849Z,14.05
2022-10-03T11:49:12.658Z,14.18
2022-10-03T11:52:09.981Z,13.30
2022-10-03T11:54:43.681Z,14.88
2022-10-03T11:57:32.171Z,12.70
2022-10-03T12:00:06.917Z,14.07
2022-10-03T12:02:53.349Z,13.93
2022-10-03T12:05:45.664Z,14.60
2022-10-03T12:08:50.233Z,13.45
2022-10-03T12:11:25.323Z,13.77
2022-10-03T12:14:23.716Z,14.38
2022-10-03T12:17:17.509Z,15.05
2022-10-03T12:20:03.909Z,15.57
2022-10-03T12:22:53.026Z,15.00
2022-10-03T12:25:26.133Z,15.07
2022-10-03T12:28:14.988Z,15.50
2022-10-03T12:31:15.908Z,14.67
2022-10-03T12:34:12.235Z,14.65
2022-10-03T12:36:49.638Z,13.45
2022-10-03T12:39:45.817Z,12.75
2022-10-03T12:42:23.739Z,14.50
2022-10-03T12:45:05.630Z,13.90
2022-10-03T12:47:56.407Z,13.93
2022-10-03T12:50:47.750Z,14.38
2022-10-03T12:53:18.728Z,15.10
2022-10-03T12:56:14.339Z,14.13
2022-10-03T12:59:15.366Z,14.73
2022-10-03T13:01:58.905Z,13.82
2022-10-03T13:04:35.673Z,13.98
2022-10-03T13:07:39.289Z,11.60
2022-10-03T13:10:32.088Z,11.27
2022-10-03T13:13:20.428Z,13.13
2022-10-03T13:16:04.889Z,10.90
2022-10-03T13:18:38.978Z,13.75
2022-10-03T13:21:44.065Z,11.25
2022-10-03T13:24:44.465Z,12.32
2022-10-03T13:27:32.869Z,16.23
2022-10-03T13:30:06.166Z,11.02
2022-10-03T13:32:43.307Z,11.38
2022-10-03T13:35:52.288Z,11.55
2022-10-03T13:38:59.308Z,12.93
2022-10-03T13:41:31.681Z,11.23
2022-10-03T13:44:10.610Z,13.57
2022-10-03T13:47:20.150Z,13.70
2022-10-03T13:50:03.615Z,14.98
2022-10-03T13:52:46.845Z,16.08
2022-10-03T13:55:19.491Z,17.85
2022-10-03T13:58:03.495Z,15.73
2022-10-03T14:01:14.197Z,19.23
2022-10-03T14:04:10.488Z,21.70
2022-10-03T14:06:51.835Z,23.83
2022-10-03T14:09:41.534Z,36.08
2022-10-03T14:12:38.224Z,31.17
2022-10-03T14:15:43.801Z,31.30
2022-10-03T14:18:37.903Z,34.58
2022-10-03T14:21:27.877Z,27.70
2022-10-03T14:24:06.017Z,27.98
2022-10-03T14:26:42.047Z,26.55
2022-10-03T14:29:26.574Z,29.08
2022-10-03T14:32:28.181Z,32.97
2022-10-03T14:35:17.793Z,28.13
2022-10-03T14:38:51.419Z,29.45
2022-10-03T14:41:31.240Z,41.20
2022-10-03T14:47:12.671Z,31.80
2022-10-03T14:49:59.219Z,34.28
2022-10-03T14:52:47.780Z,47.22
2022-10-03T14:55:25.219Z,47.97
2022-10-03T14:58:29.489Z,43.58
2022-10-03T15:01:24.428Z,39.15
2022-10-03T15:04:02.339Z,41.90
2022-10-03T15:06:45.514Z,36.83
2022-10-03T15:09:21.289Z,36.85
2022-10-03T15:12:25.501Z,33.03
2022-10-03T15:15:27.655Z,33.63
2022-10-03T15:18:05.469Z,37.72
2022-10-03T15:20:37.594Z,34.00
2022-10-03T15:23:24.568Z,31.55
2022-10-03T15:25:54.928Z,31.55
2022-10-03T15:28:40.308Z,34.70
2022-10-03T15:31:13.795Z,38.00
2022-10-03T15:33:44.230Z,35.83
2022-10-03T15:36:30.555Z,35.30
2022-10-03T15:39:06.344Z,37.20
2022-10-03T15:41:56.098Z,37.75
2022-10-03T15:47:09.633Z,42.83
2022-10-03T15:49:41.586Z,43.10
2022-10-03T15:52:28.450Z,44.45
2022-10-03T15:55:14.831Z,45.72
2022-10-03T15:57:56.714Z,36.80
2022-10-03T16:00:31.682Z,32.08
2022-10-03T16:03:29.657Z,30.13
2022-10-03T16:06:06.234Z,25.63
2022-10-03T16:08:42.822Z,26.38
2022-10-03T16:11:21.958Z,25.20
2022-10-03T16:14:11.983Z,24.10
2022-10-03T16:16:54.110Z,23.77
2022-10-03T16:20:02.677Z,23.52
2022-10-03T16:22:50.860Z,22.48
2022-10-03T16:26:03.759Z,23.08
2022-10-03T16:28:31.779Z,22.83
2022-10-03T16:31:06.349Z,22.10
2022-10-03T16:33:43.541Z,21.02
2022-10-03T16:36:18.894Z,23.67
2022-10-03T16:39:26.650Z,24.08
2022-10-03T16:41:56.196Z,25.58
2022-10-03T16:44:35.943Z,25.95
2022-10-03T16:47:06.332Z,29.42
2022-10-03T16:50:14.406Z,26.98
2022-10-03T16:52:45.828Z,31.80
2022-10-03T16:55:37.973Z,29.48
2022-10-03T16:58:30.014Z,28.52
2022-10-03T17:01:30.768Z,23.90
2022-10-03T17:04:26.030Z,21.40
2022-10-03T17:07:05.667Z,18.55
2022-10-03T17:12:30.199Z,17.45
2022-10-03T17:15:08.827Z,19.87
2022-10-03T17:18:02.552Z,23.05
2022-10-03T17:20:50.324Z,21.27
2022-10-03T17:23:43.080Z,19.13
2022-10-03T17:26:30.100Z,17.70
2022-10-03T17:29:25.986Z,17.40
2022-10-03T17:32:02.530Z,16.20
2022-10-03T17:34:59.366Z,16.90
2022-10-03T17:37:47.208Z,19.40
2022-10-03T17:40:51.775Z,19.08
2022-10-03T17:43:50.716Z,16.73
2022-10-03T17:46:29.649Z,17.23
2022-10-03T17:49:20.700Z,18.58
2022-10-03T17:51:52.307Z,18.60
2022-10-03T17:54:33.659Z,18.90
2022-10-03T17:57:14.987Z,18.20
2022-10-03T17:59:55.614Z,19.02
2022-10-03T18:02:39.429Z,17.52
2022-10-03T18:05:21.052Z,21.33
2022-10-03T18:07:55.105Z,19.38
2022-10-03T18:10:29.833Z,18.70
2022-10-03T18:13:03.717Z,19.20
2022-10-03T18:15:36.358Z,19.13
2022-10-03T18:18:28.235Z,19.40
2022-10-03T18:21:02.052Z,18.17
2022-10-03T18:24:06.145Z,18.88
2022-10-03T18:26:47.167Z,19.42
2022-10-03T18:29:25.950Z,17.70
2022-10-03T18:32:20.897Z,17.92
2022-10-03T18:35:01.425Z,19.35
2022-10-03T18:37:30.918Z,18.50
2022-10-03T18:40:01.044Z,18.58
2022-10-03T18:42:32.611Z,19.55
2022-10-03T18:45:02.175Z,20.30
2022-10-03T18:47:35.939Z,19.75
2022-10-03T18:50:35.584Z,18.60
2022-10-03T18:53:36.227Z,18.48
2022-10-03T18:56:13.513Z,19.90
2022-10-03T18:59:08.549Z,19.73
2022-10-03T19:01:54.423Z,20.92
2022-10-03T19:04:34.952Z,20.23
2022-10-03T19:07:12.039Z,19.75
2022-10-03T19:09:46.927Z,20.65
2022-10-03T19:12:23.207Z,21.33
2022-10-03T19:15:21.077Z,22.00
2022-10-03T19:18:09.113Z,19.63
2022-10-03T19:20:44.511Z,20.05
2022-10-03T19:23:20.691Z,21.00
2022-10-03T19:25:58.948Z,21.63
2022-10-03T19:28:38.284Z,19.17
2022-10-03T19:31:17.285Z,21.92
2022-10-03T19:33:52.310Z,20.45
2022-10-03T19:36:28.263Z,20.00
2022-10-03T19:38:58.629Z,19.92
2022-10-03T19:41:33.646Z,20.35
2022-10-03T19:44:09.983Z,20.10
2022-10-03T19:46:48.007Z,42.42
2022-10-03T19:49:38.768Z,30.08
2022-10-03T19:52:16.089Z,25.17
2022-10-03T19:54:53.648Z,24.67
2022-10-03T19:57:29.483Z,21.63
2022-10-03T20:00:04.922Z,19.77
2022-10-03T20:02:34.096Z,21.05
2022-10-03T20:05:02.515Z,21.55
2022-10-03T20:10:35.183Z,18.75
2022-10-03T20:13:04.728Z,18.60
2022-10-03T20:15:46.598Z,18.55
2022-10-03T20:18:24.035Z,19.02
2022-10-03T20:20:55.946Z,20.60
2022-10-03T20:23:27.177Z,20.50
2022-10-03T20:26:04.860Z,19.67
2022-10-03T20:28:56.367Z,20.25
2022-10-03T20:31:27.307Z,21.45
2022-10-03T20:34:00.336Z,21.42
2022-10-03T20:36:38.258Z,20.40
2022-10-03T20:39:29.348Z,22.63
2022-10-03T20:42:04.600Z,22.83
2022-10-03T20:44:42.024Z,19.73
2022-10-03T20:47:31.500Z,21.30
2022-10-03T20:50:18.565Z,20.88
2022-10-03T20:52:57.153Z,21.67
2022-10-03T20:55:30.583Z,21.87
2022-10-03T20:58:07.447Z,21.67
2022-10-03T21:00:44.895Z,21.67
2022-10-03T21:03:28.503Z,22.05
2022-10-03T21:05:59.799Z,19.98
2022-10-03T21:08:41.437Z,20.35
2022-10-03T21:11:12.211Z,20.25
2022-10-03T21:13:54.432Z,20.48
2022-10-03T21:16:33.711Z,19.38
2022-10-03T21:19:16.108Z,18.63
2022-10-03T21:21:53.481Z,20.80
2022-10-03T21:24:40.102Z,20.02
2022-10-03T21:27:14.943Z,18.73
2022-10-03T21:29:56.559Z,19.35
2022-10-03T21:33:01.576Z,19.25
2022-10-03T21:35:41.815Z,18.50
2022-10-03T21:38:31.569Z,18.05
2022-10-03T21:41:26.803Z,17.98
2022-10-03T21:44:05.480Z,19.20
2022-10-03T21:47:15.610Z,18.13
2022-10-03T21:49:58.669Z,18.80
2022-10-03T21:52:50.357Z,17.83
2022-10-03T21:55:50.751Z,17.52
2022-10-03T21:58:29.766Z,15.73
2022-10-03T22:01:29.830Z,17.15
2022-10-03T22:04:09.950Z,17.48
2022-10-03T22:07:00.896Z,17.45
2022-10-03T22:09:29.888Z,16.73
2022-10-03T22:12:06.738Z,17.63
2022-10-03T22:14:50.311Z,17.70
2022-10-03T22:17:57.471Z,17.02
2022-10-03T22:20:32.288Z,16.60
2022-10-03T22:23:18.216Z,17.48
2022-10-03T22:25:55.709Z,17.65
2022-10-03T22:28:32.881Z,17.58
2022-10-03T22:31:48.000Z,15.73
2022-10-03T22:34:37.955Z,15.60
2022-10-03T22:37:06.114Z,17.17
2022-10-03T22:39:37.303Z,17.20
2022-10-03T22:42:07.722Z,17.13
2022-10-03T22:44:41.564Z,16.73
2022-10-03T22:47:20.282Z,17.10
2022-10-03T22:49:50.631Z,17.38
2022-10-03T22:52:25.849Z,16.00
2022-10-03T22:54:56.068Z,15.73
2022-10-03T22:57:26.265Z,15.90
2022-10-03T23:00:09.239Z,15.90
2022-10-03T23:02:54.793Z,15.23
2022-10-03T23:05:49.013Z,15.50
2022-10-03T23:08:38.507Z,15.90
2022-10-03T23:13:51.650Z,14.45
2022-10-03T23:16:55.290Z,15.93
2022-10-03T23:19:53.283Z,14.38
2022-10-03T23:22:27.697Z,14.02
2022-10-03T23:25:03.790Z,13.43
2022-10-03T23:27:47.434Z,14.73
2022-10-03T23:30:18.375Z,15.77
2022-10-03T23:32:49.139Z,13.88
2022-10-03T23:35:36.720Z,14.57
2022-10-03T23:38:36.844Z,15.88
2022-10-03T23:41:12.403Z,14.98
2022-10-03T23:43:55.880Z,14.52
2022-10-03T23:46:31.868Z,14.98
2022-10-03T23:49:02.296Z,12.88
2022-10-03T23:51:34.552Z,13.15
2022-10-03T23:54:10.076Z,13.70
2022-10-03T23:56:48.395Z,13.15
2022-10-03T23:59:18.056Z,12.40
